Time;durP1;ratioP1;P1;durP2;ratioP2;P2;SDS_P1;SDS_P2;PMS_P1;PMS_P2;Temp;Humidity;BMP_temperature;BMP_pressure;BME280_temperature;BME280_humidity;BME280_pressure;Samples;Min_cycle;Max_cycle;Signal;HPM_P1;HPM_P2
2024/04/14 00:00:51;;;;;;;1.67;1.57;;;11.80;94.90;;;;;;5343922;26;20414;-63
2024/04/14 00:03:17;;;;;;;2.50;1.50;;;11.80;95.00;;;;;;5344655;26;20769;-63
2024/04/14 00:05:43;;;;;;;1.70;1.60;;;11.70;95.30;;;;;;5344482;26;20221;-63
2024/04/14 00:08:09;;;;;;;2.70;1.67;;;11.80;95.30;;;;;;5344354;26;20268;-64
2024/04/14 00:10:35;;;;;;;1.60;1.50;;;11.70;95.50;;;;;;5343594;26;20447;-64
2024/04/14 00:13:01;;;;;;;1.87;1.40;;;11.70;95.70;;;;;;5313902;26;20246;-63
2024/04/14 00:15:26;;;;;;;1.33;1.23;;;11.70;95.80;;;;;;5344247;26;20273;-63
2024/04/14 00:17:52;;;;;;;1.23;1.13;;;11.70;95.80;;;;;;5344268;26;20492;-63
2024/04/14 00:20:18;;;;;;;1.80;1.50;;;11.70;95.80;;;;;;5343392;26;20444;-63
2024/04/14 00:22:44;;;;;;;2.10;2.00;;;11.70;95.90;;;;;;5344615;26;20746;-63
2024/04/14 00:25:11;;;;;;;1.90;1.47;;;11.70;96.30;;;;;;5344591;26;20252;-63
2024/04/14 00:27:37;;;;;;;1.97;1.77;;;11.60;96.40;;;;;;5346674;26;20218;-63
2024/04/14 00:30:03;;;;;;;1.43;1.40;;;11.70;96.40;;;;;;5346974;26;20849;-64
2024/04/14 00:32:29;;;;;;;1.47;1.37;;;11.80;96.40;;;;;;5347412;26;20318;-63
2024/04/14 00:34:54;;;;;;;1.30;1.20;;;11.90;96.60;;;;;;5347352;26;21016;-63
2024/04/14 00:37:20;;;;;;;1.70;1.60;;;11.80;96.60;;;;;;5347340;26;20331;-64
2024/04/14 00:39:46;;;;;;;3.03;1.60;;;11.70;97.20;;;;;;5347422;26;20221;-63
2024/04/14 00:42:11;;;;;;;1.47;1.37;;;11.70;97.80;;;;;;5347088;26;20679;-63
2024/04/14 00:44:37;;;;;;;1.83;1.73;;;11.60;97.90;;;;;;5346942;26;20233;-63
2024/04/14 00:47:03;;;;;;;2.80;1.87;;;11.60;97.70;;;;;;5347698;26;20558;-63
2024/04/14 00:49:30;;;;;;;1.83;1.40;;;11.70;97.70;;;;;;5347402;26;20485;-63
2024/04/14 00:51:59;;;;;;;4.23;1.60;;;11.70;97.50;;;;;;5347040;26;20524;-63
2024/04/14 00:54:26;;;;;;;2.60;1.43;;;11.70;97.30;;;;;;5347335;26;20464;-63
2024/04/14 00:56:51;;;;;;;2.50;1.90;;;11.70;97.00;;;;;;5347107;26;20562;-64
2024/04/14 00:59:18;;;;;;;2.30;1.63;;;11.70;96.90;;;;;;5346772;26;20222;-64
2024/04/14 01:01:44;;;;;;;2.30;1.87;;;11.70;96.90;;;;;;5346694;26;20448;-63
2024/04/14 01:04:09;;;;;;;4.33;1.53;;;11.70;97.20;;;;;;5346992;26;20520;-63
2024/04/14 01:06:35;;;;;;;1.90;1.80;;;11.60;97.60;;;;;;5347271;26;20581;-64
2024/04/14 01:09:03;;;;;;;3.77;1.57;;;11.60;97.40;;;;;;5346771;26;20284;-63
2024/04/14 01:11:29;;;;;;;3.03;1.47;;;11.60;97.60;;;;;;5346709;26;20436;-63
2024/04/14 01:13:55;;;;;;;1.30;1.30;;;11.60;97.70;;;;;;5346766;26;20516;-63
2024/04/14 01:16:20;;;;;;;4.37;1.43;;;11.60;97.60;;;;;;5346422;26;20452;-63
2024/04/14 01:18:46;;;;;;;1.50;1.40;;;11.60;97.50;;;;;;5344961;26;20827;-64
2024/04/14 01:21:12;;;;;;;2.60;1.53;;;11.60;97.60;;;;;;5346786;26;20252;-63
2024/04/14 01:23:38;;;;;;;2.40;1.77;;;11.50;97.90;;;;;;5346752;26;20296;-63
2024/04/14 01:26:04;;;;;;;3.70;1.50;;;11.40;98.00;;;;;;5346822;26;20444;-64
2024/04/14 01:28:30;;;;;;;1.53;1.43;;;11.40;98.20;;;;;;5346902;26;20214;-64
2024/04/14 01:30:56;;;;;;;1.53;1.47;;;11.30;98.20;;;;;;5344502;26;20315;-63
2024/04/14 01:33:22;;;;;;;3.03;1.50;;;11.30;98.20;;;;;;5346502;26;20475;-63
2024/04/14 01:35:47;;;;;;;2.13;1.93;;;11.30;98.40;;;;;;5346677;26;20218;-63
2024/04/14 01:38:13;;;;;;;2.03;1.87;;;11.30;98.50;;;;;;5345209;26;20229;-63
2024/04/14 01:40:39;;;;;;;2.27;2.07;;;11.30;98.50;;;;;;5346296;26;20217;-63
2024/04/14 01:43:05;;;;;;;2.73;1.77;;;11.20;98.60;;;;;;5352379;26;20228;-64
2024/04/14 01:45:30;;;;;;;2.80;1.70;;;11.20;98.50;;;;;;5381475;26;20317;-63
2024/04/14 01:47:56;;;;;;;1.70;1.60;;;11.30;98.60;;;;;;5381279;26;20458;-63
2024/04/14 01:50:22;;;;;;;1.80;1.30;;;11.20;98.50;;;;;;5381002;26;20318;-64
2024/04/14 01:52:47;;;;;;;1.40;1.30;;;11.20;98.50;;;;;;5381180;26;20232;-63
2024/04/14 01:55:13;;;;;;;1.33;1.23;;;11.20;98.50;;;;;;5381228;26;20267;-63
2024/04/14 01:57:39;;;;;;;5.63;1.70;;;11.20;98.70;;;;;;5380997;26;20266;-63
2024/04/14 02:00:05;;;;;;;2.20;1.70;;;11.10;98.90;;;;;;5349760;26;20229;-63
2024/04/14 02:02:32;;;;;;;1.20;1.20;;;11.20;98.70;;;;;;5379369;26;20228;-64
2024/04/14 02:04:57;;;;;;;2.10;1.20;;;11.20;98.60;;;;;;5380940;26;20240;-63
2024/04/14 02:07:23;;;;;;;1.90;1.60;;;11.10;98.70;;;;;;5381036;26;20273;-63
2024/04/14 02:09:50;;;;;;;1.67;1.57;;;11.10;99.00;;;;;;5380478;26;20321;-63
2024/04/14 02:12:16;;;;;;;1.43;1.33;;;11.10;98.90;;;;;;5380941;26;20216;-64
2024/04/14 02:14:42;;;;;;;1.90;1.80;;;11.10;98.90;;;;;;5380941;26;20454;-64
2024/04/14 02:17:07;;;;;;;2.50;1.83;;;11.10;99.10;;;;;;5380833;26;20564;-64
2024/04/14 02:19:33;;;;;;;1.40;1.30;;;11.10;99.00;;;;;;5380746;26;20252;-63
2024/04/14 02:21:59;;;;;;;1.70;1.60;;;11.00;99.40;;;;;;5381454;26;20720;-63
2024/04/14 02:24:24;;;;;;;1.60;1.50;;;10.90;99.70;;;;;;5380804;26;20258;-63
2024/04/14 02:26:50;;;;;;;2.30;2.07;;;10.90;99.50;;;;;;5350032;26;20216;-64
2024/04/14 02:29:15;;;;;;;2.17;2.00;;;11.00;99.30;;;;;;5380996;26;20217;-63
2024/04/14 02:31:41;;;;;;;1.27;1.17;;;11.00;99.20;;;;;;5380406;26;20600;-63
2024/04/14 02:34:07;;;;;;;1.57;1.47;;;10.90;99.20;;;;;;5349871;26;20236;-64
2024/04/14 02:36:32;;;;;;;2.10;1.77;;;10.90;99.20;;;;;;5350326;26;20243;-63
2024/04/14 02:38:58;;;;;;;1.97;1.63;;;10.80;99.40;;;;;;5380706;26;20307;-63
2024/04/14 02:41:23;;;;;;;1.63;1.53;;;10.80;99.60;;;;;;5380517;26;20691;-63
2024/04/14 02:43:49;;;;;;;2.23;1.63;;;10.70;99.50;;;;;;5380511;26;20731;-63
2024/04/14 02:46:15;;;;;;;2.60;2.40;;;10.80;99.50;;;;;;5380708;26;20209;-63
2024/04/14 02:48:47;;;;;;;1.40;1.30;;;10.90;99.20;;;;;;5349088;26;20243;-63
2024/04/14 02:51:13;;;;;;;1.52;1.48;;;10.90;99.10;;;;;;5380367;26;20487;-63
2024/04/14 02:53:38;;;;;;;2.53;2.33;;;10.90;99.00;;;;;;5380288;26;20228;-63
2024/04/14 02:56:05;;;;;;;1.60;1.23;;;10.90;99.00;;;;;;5380268;26;20325;-64
2024/04/14 02:58:30;;;;;;;1.73;1.35;;;10.90;98.90;;;;;;5380394;26;20321;-63
2024/04/14 03:01:02;;;;;;;2.70;1.70;;;10.90;98.90;;;;;;5377878;26;20284;-63
2024/04/14 03:03:28;;;;;;;1.25;1.15;;;10.80;99.00;;;;;;5380259;26;20278;-63
2024/04/14 03:06:04;;;;;;;1.97;1.13;;;10.80;99.10;;;;;;5380056;26;20220;-63
2024/04/14 03:08:30;;;;;;;1.65;1.55;;;10.70;99.40;;;;;;5380080;26;20971;-63
2024/04/14 03:10:57;;;;;;;6.38;1.67;;;10.60;99.40;;;;;;5379741;26;20221;-63
2024/04/14 03:13:23;;;;;;;2.33;1.92;;;10.70;99.40;;;;;;5349871;26;20262;-63
2024/04/14 03:15:49;;;;;;;1.70;1.60;;;10.60;99.20;;;;;;5380087;26;20463;-63
2024/04/14 03:18:15;;;;;;;1.93;1.73;;;10.70;99.20;;;;;;5380024;26;20260;-63
2024/04/14 03:20:40;;;;;;;2.60;1.60;;;10.70;99.10;;;;;;5348584;26;20217;-63
2024/04/14 03:23:06;;;;;;;2.00;1.80;;;10.70;99.00;;;;;;5380230;26;20506;-63
2024/04/14 03:25:32;;;;;;;1.50;1.40;;;10.60;98.90;;;;;;5380011;26;20682;-63
2024/04/14 03:27:57;;;;;;;1.90;1.80;;;10.60;99.00;;;;;;5380208;26;20259;-63
2024/04/14 03:30:23;;;;;;;1.80;1.70;;;10.60;99.10;;;;;;5379755;26;20749;-64
2024/04/14 03:32:48;;;;;;;1.63;1.40;;;10.60;99.20;;;;;;5379842;26;20780;-63
2024/04/14 03:35:14;;;;;;;1.20;1.10;;;10.50;99.10;;;;;;5379767;26;20276;-63
2024/04/14 03:37:40;;;;;;;1.97;1.87;;;10.50;99.20;;;;;;5348898;26;20217;-63
2024/04/14 03:40:06;;;;;;;1.80;1.63;;;10.50;99.30;;;;;;5379157;26;20593;-63
2024/04/14 03:42:35;;;;;;;1.02;0.90;;;10.40;99.20;;;;;;5379895;26;20258;-63
2024/04/14 03:45:07;;;;;;;1.35;1.20;;;10.50;99.10;;;;;;5378759;26;20723;-64
2024/04/14 03:47:34;;;;;;;1.88;1.50;;;10.60;98.90;;;;;;5379487;26;20220;-64
2024/04/14 03:49:59;;;;;;;1.88;1.55;;;10.60;98.90;;;;;;5348410;26;20384;-64
2024/04/14 03:52:25;;;;;;;1.37;1.27;;;10.60;99.00;;;;;;5379733;26;20251;-63
2024/04/14 03:54:51;;;;;;;1.27;1.17;;;10.50;99.20;;;;;;5348343;26;20236;-63
2024/04/14 03:57:17;;;;;;;1.77;1.30;;;10.50;99.40;;;;;;5379403;26;20442;-63
2024/04/14 03:59:44;;;;;;;2.43;1.50;;;10.50;99.20;;;;;;5379343;26;20259;-63
2024/04/14 04:02:10;;;;;;;2.35;1.77;;;10.50;99.20;;;;;;5381367;26;20629;-63
2024/04/14 04:04:36;;;;;;;1.53;1.43;;;10.50;99.10;;;;;;5382794;26;20275;-63
2024/04/14 04:07:02;;;;;;;1.33;1.23;;;10.40;99.20;;;;;;5382756;26;20561;-63
2024/04/14 04:09:27;;;;;;;1.30;1.30;;;10.40;99.30;;;;;;5382676;26;20274;-63
2024/04/14 04:11:53;;;;;;;2.30;2.10;;;10.40;99.30;;;;;;5382471;26;20217;-63
2024/04/14 04:14:18;;;;;;;2.77;1.87;;;10.30;99.50;;;;;;5351550;26;20356;-63
2024/04/14 04:16:44;;;;;;;3.50;1.67;;;10.30;99.80;;;;;;5382598;26;20853;-63
2024/04/14 04:19:10;;;;;;;1.33;1.23;;;10.30;99.80;;;;;;5351605;26;20216;-63
2024/04/14 04:21:36;;;;;;;2.13;2.00;;;10.30;99.80;;;;;;5382356;26;20228;-63
2024/04/14 04:24:01;;;;;;;1.57;1.47;;;10.40;99.60;;;;;;5373776;26;20334;-63
2024/04/14 04:26:27;;;;;;;1.73;1.63;;;10.50;99.30;;;;;;5347484;26;20233;-63
2024/04/14 04:28:53;;;;;;;2.17;1.97;;;10.50;99.20;;;;;;5347239;26;20322;-63
2024/04/14 04:31:18;;;;;;;1.80;1.70;;;10.50;99.20;;;;;;5348088;26;20844;-63
2024/04/14 04:33:44;;;;;;;4.10;1.70;;;10.50;99.30;;;;;;5347685;26;20583;-63
2024/04/14 04:36:12;;;;;;;1.90;1.40;;;10.50;99.50;;;;;;5347167;26;20269;-63
2024/04/14 04:38:37;;;;;;;4.68;1.83;;;10.50;99.50;;;;;;5347066;26;20716;-63
2024/04/14 04:41:03;;;;;;;3.80;1.50;;;10.50;99.60;;;;;;5347157;26;20284;-63
2024/04/14 04:43:29;;;;;;;1.53;1.43;;;10.40;99.60;;;;;;5347190;26;20293;-63
2024/04/14 04:45:54;;;;;;;2.13;1.43;;;10.40;99.80;;;;;;5347228;26;20218;-63
2024/04/14 04:48:20;;;;;;;1.37;1.27;;;10.40;99.90;;;;;;5347522;26;20432;-63
2024/04/14 04:50:46;;;;;;;2.17;1.97;;;10.40;99.90;;;;;;5347273;26;20229;-63
2024/04/14 04:53:14;;;;;;;1.88;1.40;;;10.50;99.90;;;;;;5347413;26;20460;-63
2024/04/14 04:55:40;;;;;;;1.95;1.48;;;10.50;99.90;;;;;;5347344;26;20715;-63
2024/04/14 04:58:05;;;;;;;2.17;2.00;;;10.60;99.80;;;;;;5347049;26;20256;-62
2024/04/14 05:00:31;;;;;;;1.47;1.37;;;10.70;99.70;;;;;;5346684;26;20229;-63
2024/04/14 05:02:56;;;;;;;1.90;1.43;;;10.70;99.60;;;;;;5347144;26;20260;-62
2024/04/14 05:05:22;;;;;;;2.20;1.47;;;10.80;99.60;;;;;;5347443;26;20221;-63
2024/04/14 05:07:48;;;;;;;2.50;1.73;;;10.90;99.60;;;;;;5346776;26;20761;-63
2024/04/14 05:10:13;;;;;;;1.73;1.57;;;10.90;99.60;;;;;;5344642;26;20271;-63
2024/04/14 05:12:39;;;;;;;3.17;1.83;;;11.00;99.50;;;;;;5346682;26;20257;-63
2024/04/14 05:15:06;;;;;;;2.17;2.07;;;11.00;99.60;;;;;;5343114;26;20226;-63
2024/04/14 05:17:32;;;;;;;1.10;1.03;;;11.10;99.60;;;;;;5346725;26;20314;-63
2024/04/14 05:19:58;;;;;;;1.70;1.60;;;11.10;99.90;;;;;;5346487;26;20958;-63
2024/04/14 05:22:24;;;;;;;1.70;1.60;;;11.00;99.90;;;;;;5346344;26;20256;-63
2024/04/14 05:24:49;;;;;;;1.40;1.30;;;11.10;99.90;;;;;;5346331;26;20397;-63
2024/04/14 05:27:19;;;;;;;2.37;2.00;;;11.20;99.90;;;;;;5345426;26;20268;-63
2024/04/14 05:29:45;;;;;;;1.55;1.27;;;11.30;99.80;;;;;;5346551;26;20227;-63
2024/04/14 05:32:20;;;;;;;2.10;2.00;;;11.40;99.40;;;;;;5346415;26;20300;-63
2024/04/14 05:34:49;;;;;;;1.40;1.30;;;11.60;99.10;;;;;;5346744;26;21002;-63
2024/04/14 05:37:14;;;;;;;1.73;1.63;;;11.60;99.00;;;;;;5347012;26;20444;-63
2024/04/14 05:39:40;;;;;;;2.10;1.93;;;11.60;99.00;;;;;;5346461;26;20448;-63
2024/04/14 05:42:06;;;;;;;1.43;1.40;;;11.90;99.70;;;;;;5346107;26;20371;-63
2024/04/14 05:44:33;;;;;;;1.40;1.30;;;12.40;99.80;;;;;;5373646;26;20228;-64
2024/04/14 05:46:59;;;;;;;1.80;1.70;;;13.30;99.70;;;;;;5381375;26;20486;-64
2024/04/14 05:49:25;;;;;;;2.30;1.60;;;14.50;98.40;;;;;;5381163;26;20491;-64
2024/04/14 05:51:51;;;;;;;1.60;1.50;;;15.90;95.50;;;;;;5381076;26;20266;-64
2024/04/14 05:54:16;;;;;;;3.33;1.60;;;17.40;92.80;;;;;;5340865;26;20537;-64
2024/04/14 05:56:42;;;;;;;1.60;1.30;;;18.50;87.80;;;;;;5381158;26;20526;-64
2024/04/14 05:59:08;;;;;;;1.33;1.23;;;19.20;83.30;;;;;;5350179;26;20236;-64
2024/04/14 06:01:33;;;;;;;2.37;1.70;;;19.50;81.30;;;;;;5380976;26;20224;-64
2024/04/14 06:03:59;;;;;;;1.70;1.60;;;19.70;79.60;;;;;;5381081;26;20275;-64
2024/04/14 06:06:24;;;;;;;1.70;1.60;;;19.60;79.10;;;;;;5350187;26;20710;-64
2024/04/14 06:08:52;;;;;;;1.80;1.70;;;19.40;79.10;;;;;;5380866;26;20221;-64
2024/04/14 06:11:18;;;;;;;2.10;1.40;;;19.20;80.00;;;;;;5346919;26;20269;-64
2024/04/14 06:13:44;;;;;;;1.67;1.57;;;19.30;79.10;;;;;;5345975;26;20453;-64
2024/04/14 06:16:09;;;;;;;1.70;1.60;;;19.20;79.60;;;;;;5346279;26;20496;-64
2024/04/14 06:18:35;;;;;;;1.53;1.43;;;19.00;78.50;;;;;;5345968;26;20253;-64
2024/04/14 06:21:02;;;;;;;3.60;1.97;;;18.70;80.00;;;;;;5345361;26;20220;-64
2024/04/14 06:23:28;;;;;;;3.47;1.90;;;18.30;81.90;;;;;;5345166;26;20331;-63
2024/04/14 06:25:53;;;;;;;3.17;2.50;;;18.00;82.20;;;;;;5342238;26;20535;-63
2024/04/14 06:28:19;;;;;;;3.53;3.23;;;17.60;83.60;;;;;;5344524;26;20221;-63
2024/04/14 06:30:45;;;;;;;3.10;2.40;;;17.60;84.50;;;;;;5344965;26;20217;-63
2024/04/14 06:33:10;;;;;;;3.20;2.20;;;17.70;85.30;;;;;;5345896;26;20255;-63
2024/04/14 06:35:37;;;;;;;4.53;2.77;;;17.90;84.20;;;;;;5345634;26;20261;-63
2024/04/14 06:38:03;;;;;;;3.23;3.03;;;18.10;84.50;;;;;;5315709;26;20209;-63
2024/04/14 06:40:29;;;;;;;2.43;2.33;;;18.30;84.90;;;;;;5314728;26;20557;-63
2024/04/14 06:42:55;;;;;;;2.87;2.67;;;18.40;83.70;;;;;;5345309;26;20448;-63
2024/04/14 06:45:20;;;;;;;4.50;3.40;;;18.50;84.20;;;;;;5345693;26;20216;-62
2024/04/14 06:47:46;;;;;;;5.27;4.07;;;18.50;84.10;;;;;;5345137;26;20674;-63
2024/04/14 06:50:12;;;;;;;8.00;3.70;;;18.50;84.50;;;;;;5345048;26;20276;-63
2024/04/14 06:52:37;;;;;;;1.87;1.77;;;18.70;85.80;;;;;;5314860;26;20247;-63
2024/04/14 06:55:03;;;;;;;3.20;2.07;;;18.80;84.20;;;;;;5345274;26;20327;-63
2024/04/14 06:57:29;;;;;;;1.63;1.53;;;18.80;85.10;;;;;;5345154;26;20649;-63
2024/04/14 06:59:54;;;;;;;3.53;2.00;;;18.90;83.40;;;;;;5344760;26;20441;-64
2024/04/14 07:02:21;;;;;;;3.33;2.00;;;19.00;84.40;;;;;;5345263;26;20221;-63
2024/04/14 07:04:47;;;;;;;2.13;1.93;;;19.20;85.00;;;;;;5345024;26;20249;-63
2024/04/14 07:07:13;;;;;;;2.23;2.03;;;19.40;84.60;;;;;;5345690;26;20495;-63
2024/04/14 07:09:38;;;;;;;1.83;1.73;;;19.60;83.80;;;;;;5345108;26;20273;-63
2024/04/14 07:12:04;;;;;;;3.30;2.40;;;19.80;82.20;;;;;;5345090;26;20305;-63
2024/04/14 07:14:30;;;;;;;2.03;1.90;;;20.10;82.00;;;;;;5315104;26;20245;-63
2024/04/14 07:16:56;;;;;;;2.60;2.13;;;20.60;81.60;;;;;;5345435;26;20221;-63
2024/04/14 07:19:22;;;;;;;1.20;1.10;;;21.40;80.90;;;;;;5345345;26;20229;-63
2024/04/14 07:21:48;;;;;;;1.43;1.10;;;22.60;76.20;;;;;;5344995;26;20496;-63
2024/04/14 07:24:13;;;;;;;1.77;1.67;;;23.70;72.30;;;;;;5343344;26;20343;-63
2024/04/14 07:26:39;;;;;;;1.60;1.50;;;25.20;66.40;;;;;;5345119;26;20448;-62
2024/04/14 07:29:05;;;;;;;3.43;2.07;;;26.50;60.90;;;;;;5345119;26;20214;-64
2024/04/14 07:31:30;;;;;;;1.37;1.27;;;27.80;57.70;;;;;;5344616;26;20327;-63
2024/04/14 07:34:00;;;;;;;2.73;1.40;;;28.80;53.40;;;;;;5344857;26;20229;-63
2024/04/14 07:36:26;;;;;;;1.97;1.80;;;29.80;50.80;;;;;;5343254;26;20237;-62
2024/04/14 07:38:52;;;;;;;1.43;1.33;;;30.60;48.80;;;;;;5344950;26;20512;-62
2024/04/14 07:41:19;;;;;;;1.50;1.40;;;31.30;45.90;;;;;;5344658;26;20483;-63
2024/04/14 07:43:46;;;;;;;1.40;1.30;;;31.30;44.20;;;;;;5314254;26;20245;-63
2024/04/14 07:46:11;;;;;;;2.20;1.67;;;31.20;44.50;;;;;;5343734;26;20464;-64
2024/04/14 07:48:37;;;;;;;1.63;1.40;;;31.30;44.50;;;;;;5344545;26;21119;-62
2024/04/14 07:51:03;;;;;;;2.97;2.00;;;31.80;43.70;;;;;;5343728;26;20777;-62
2024/04/14 07:53:29;;;;;;;2.20;1.10;;;31.90;41.60;;;;;;5344563;26;20230;-63
2024/04/14 07:55:55;;;;;;;1.40;1.13;;;32.40;42.30;;;;;;5314116;26;20440;-63
2024/04/14 07:58:22;;;;;;;1.53;1.40;;;32.40;42.20;;;;;;5314228;26;20456;-63
2024/04/14 08:00:47;;;;;;;1.63;1.07;;;32.60;40.80;;;;;;5344147;26;20252;-63
2024/04/14 08:03:13;;;;;;;2.97;1.70;;;33.30;40.60;;;;;;5344525;26;20472;-62
2024/04/14 08:05:39;;;;;;;2.63;1.30;;;33.90;39.10;;;;;;5344355;26;20303;-63
2024/04/14 08:08:05;;;;;;;1.47;1.30;;;34.10;38.80;;;;;;5344786;26;20218;-63
2024/04/14 08:10:31;;;;;;;2.20;1.40;;;34.80;38.00;;;;;;5343847;26;20252;-63
2024/04/14 08:12:56;;;;;;;2.20;1.63;;;34.50;37.50;;;;;;5343646;26;20464;-64
2024/04/14 08:15:22;;;;;;;1.10;1.10;;;34.50;37.40;;;;;;5343256;26;20241;-63
2024/04/14 08:17:48;;;;;;;4.30;1.57;;;33.90;37.30;;;;;;5313690;26;20662;-63
2024/04/14 08:20:13;;;;;;;1.67;1.57;;;32.80;38.00;;;;;;5343982;26;20298;-64
2024/04/14 08:22:39;;;;;;;1.00;1.00;;;32.90;38.90;;;;;;5343905;26;20226;-63
2024/04/14 08:25:05;;;;;;;3.07;1.47;;;33.00;38.70;;;;;;5343996;26;20217;-64
2024/04/14 08:27:30;;;;;;;2.00;1.37;;;33.10;39.30;;;;;;5343943;26;20566;-63
2024/04/14 08:29:56;;;;;;;1.70;1.50;;;33.30;37.70;;;;;;5343325;26;20700;-63
2024/04/14 08:32:22;;;;;;;2.50;1.50;;;33.60;38.00;;;;;;5313539;26;20241;-63
2024/04/14 08:34:47;;;;;;;2.20;1.20;;;33.50;37.20;;;;;;5343876;26;20226;-63
2024/04/14 08:37:13;;;;;;;1.43;1.33;;;33.30;37.80;;;;;;5343888;26;20214;-63
2024/04/14 08:39:39;;;;;;;1.23;0.80;;;33.30;37.60;;;;;;5313264;26;20260;-63
2024/04/14 08:42:08;;;;;;;1.10;1.03;;;33.20;37.40;;;;;;5343576;26;20596;-63
2024/04/14 08:44:36;;;;;;;1.40;0.90;;;33.10;37.20;;;;;;5344049;26;20268;-63
2024/04/14 08:47:04;;;;;;;1.57;1.30;;;32.90;37.50;;;;;;5344475;26;21087;-63
2024/04/14 08:49:30;;;;;;;1.83;1.30;;;32.30;38.80;;;;;;5347031;26;20521;-63
2024/04/14 08:51:57;;;;;;;1.70;1.50;;;31.60;39.50;;;;;;5346298;26;21114;-63
2024/04/14 08:54:23;;;;;;;2.10;1.53;;;31.60;39.90;;;;;;5347069;26;20523;-63
2024/04/14 08:56:54;;;;;;;1.70;1.60;;;31.80;39.70;;;;;;5347071;26;20818;-63
2024/04/14 08:59:22;;;;;;;1.50;1.40;;;32.10;40.20;;;;;;5347165;26;20221;-63
2024/04/14 09:01:49;;;;;;;2.07;1.30;;;32.80;38.80;;;;;;5346911;26;20504;-63
2024/04/14 09:04:15;;;;;;;1.10;0.90;;;33.50;37.30;;;;;;5346917;26;20459;-62
2024/04/14 09:06:44;;;;;;;3.07;1.37;;;33.40;37.10;;;;;;5347015;26;20515;-62
2024/04/14 09:09:11;;;;;;;2.90;1.30;;;33.70;37.80;;;;;;5346839;26;20568;-63
2024/04/14 09:11:37;;;;;;;1.00;0.90;;;34.10;36.30;;;;;;5346681;26;20566;-63
2024/04/14 09:14:03;;;;;;;1.23;1.13;;;33.70;35.80;;;;;;5316208;26;20484;-63
2024/04/14 09:16:28;;;;;;;1.70;1.20;;;33.60;36.50;;;;;;5346803;26;20230;-65
2024/04/14 09:18:55;;;;;;;1.20;1.10;;;34.10;36.80;;;;;;5316187;26;20218;-65
2024/04/14 09:21:20;;;;;;;1.67;1.20;;;34.60;35.60;;;;;;5346673;26;20268;-63
2024/04/14 09:23:48;;;;;;;1.97;1.80;;;34.80;35.00;;;;;;5346539;26;21096;-63
2024/04/14 09:26:14;;;;;;;2.03;1.50;;;34.70;35.60;;;;;;5346562;26;20221;-63
2024/04/14 09:28:39;;;;;;;2.80;1.43;;;34.50;35.20;;;;;;5346695;26;20563;-63
2024/04/14 09:31:06;;;;;;;2.50;1.30;;;34.30;36.10;;;;;;5345448;26;20268;-63
2024/04/14 09:33:32;;;;;;;0.93;0.83;;;33.70;35.90;;;;;;5347108;26;20229;-63
2024/04/14 09:35:58;;;;;;;4.20;1.60;;;33.30;37.00;;;;;;5346702;26;20526;-63
2024/04/14 09:38:24;;;;;;;1.60;1.13;;;33.30;36.90;;;;;;5346489;26;20436;-63
2024/04/14 09:40:52;;;;;;;1.60;1.50;;;33.50;36.00;;;;;;5345825;26;20715;-63
2024/04/14 09:43:19;;;;;;;2.83;1.57;;;33.20;35.50;;;;;;5345826;26;20468;-64
2024/04/14 09:45:47;;;;;;;1.60;1.50;;;32.40;35.60;;;;;;5346484;26;20493;-62
2024/04/14 09:48:14;;;;;;;1.40;1.30;;;32.10;36.60;;;;;;5344933;26;20452;-63
2024/04/14 09:50:42;;;;;;;2.40;1.70;;;31.80;37.50;;;;;;5345832;26;20452;-63
2024/04/14 09:53:09;;;;;;;2.57;1.47;;;31.50;38.60;;;;;;5345854;26;20484;-63
2024/04/14 09:55:35;;;;;;;3.03;1.40;;;31.40;38.40;;;;;;5346158;26;20864;-63
2024/04/14 09:58:01;;;;;;;1.70;1.33;;;31.10;38.30;;;;;;5345866;26;20527;-63
2024/04/14 10:00:27;;;;;;;1.57;1.47;;;31.20;38.10;;;;;;5314534;26;20217;-63
2024/04/14 10:03:02;;;;;;;1.37;1.27;;;31.30;37.30;;;;;;5286999;26;20596;-63
2024/04/14 10:05:28;;;;;;;1.63;1.53;;;31.10;37.50;;;;;;5314856;26;20467;-63
2024/04/14 10:07:54;;;;;;;2.63;1.43;;;31.20;37.30;;;;;;5345937;26;20489;-63
2024/04/14 10:10:23;;;;;;;2.07;1.70;;;31.30;38.00;;;;;;5345765;26;20859;-63
2024/04/14 10:12:51;;;;;;;1.40;1.30;;;31.50;37.40;;;;;;5346027;26;20754;-63
2024/04/14 10:15:18;;;;;;;1.30;1.20;;;30.70;36.80;;;;;;5346067;26;20452;-63
2024/04/14 10:17:46;;;;;;;1.90;1.20;;;30.50;38.80;;;;;;5345955;26;20436;-63
2024/04/14 10:20:14;;;;;;;2.60;1.50;;;30.90;37.60;;;;;;5345511;26;20510;-63
2024/04/14 10:22:41;;;;;;;2.17;1.90;;;30.60;38.70;;;;;;5345898;26;20859;-63
2024/04/14 10:25:18;;;;;;;1.43;1.33;;;30.50;38.80;;;;;;5346007;26;20456;-63
2024/04/14 10:27:43;;;;;;;1.67;1.53;;;30.40;39.40;;;;;;5345894;26;20436;-63
2024/04/14 10:30:10;;;;;;;1.80;1.33;;;29.80;38.80;;;;;;5345441;26;20744;-63
2024/04/14 10:32:36;;;;;;;4.20;1.70;;;29.70;39.70;;;;;;5315236;26;20248;-63
2024/04/14 10:35:13;;;;;;;1.57;0.97;;;29.80;40.10;;;;;;5315352;26;20452;-63
2024/04/14 10:37:38;;;;;;;1.83;1.27;;;29.60;40.00;;;;;;5315316;26;20243;-63
2024/04/14 10:40:05;;;;;;;1.37;1.27;;;28.90;39.20;;;;;;5345304;26;20452;-63
2024/04/14 10:42:32;;;;;;;1.80;1.37;;;28.70;40.50;;;;;;5345815;26;20327;-63
2024/04/14 10:44:57;;;;;;;1.77;1.60;;;28.80;40.70;;;;;;5345554;26;20569;-63
2024/04/14 10:47:23;;;;;;;1.20;0.80;;;28.50;40.70;;;;;;5345494;26;20455;-63
2024/04/14 10:49:50;;;;;;;2.20;1.60;;;28.30;41.30;;;;;;5345323;26;20237;-63
2024/04/14 10:52:16;;;;;;;1.50;1.40;;;28.00;41.10;;;;;;5345651;26;20214;-62
2024/04/14 10:54:42;;;;;;;1.57;1.50;;;27.80;42.60;;;;;;5345372;26;20997;-61
2024/04/14 10:57:09;;;;;;;1.30;1.20;;;27.60;42.00;;;;;;5345265;26;20921;-62
2024/04/14 10:59:35;;;;;;;1.60;1.33;;;27.70;43.90;;;;;;5345104;26;20448;-62
2024/04/14 11:02:02;;;;;;;1.57;1.47;;;27.80;42.70;;;;;;5344933;26;20448;-63
2024/04/14 11:04:28;;;;;;;2.03;1.40;;;27.70;41.90;;;;;;5345070;26;20511;-62
2024/04/14 11:06:55;;;;;;;1.37;1.30;;;27.60;41.10;;;;;;5345472;26;20554;-62
2024/04/14 11:09:22;;;;;;;1.50;1.40;;;27.40;40.70;;;;;;5343932;26;20468;-62
2024/04/14 11:11:49;;;;;;;1.57;1.47;;;26.50;41.00;;;;;;5344561;26;20472;-62
2024/04/14 11:14:20;;;;;;;2.20;1.37;;;26.30;41.10;;;;;;5343627;26;20626;-63
2024/04/14 11:16:47;;;;;;;1.50;1.40;;;26.30;42.20;;;;;;5344824;26;20452;-63
2024/04/14 11:19:12;;;;;;;2.03;1.40;;;26.40;41.60;;;;;;5345346;26;21030;-63
2024/04/14 11:21:38;;;;;;;2.57;2.47;;;26.50;42.30;;;;;;5345091;26;20424;-63
2024/04/14 11:24:14;;;;;;;1.40;1.30;;;26.10;41.80;;;;;;5345224;26;20281;-63
2024/04/14 11:26:41;;;;;;;1.50;1.40;;;26.00;42.30;;;;;;5345215;26;20217;-62
2024/04/14 11:29:07;;;;;;;1.30;1.20;;;25.90;43.30;;;;;;5344728;26;20480;-61
2024/04/14 11:31:39;;;;;;;2.17;1.97;;;25.90;43.40;;;;;;5344760;26;20436;-63
2024/04/14 11:34:07;;;;;;;2.00;1.10;;;25.80;43.20;;;;;;5344997;26;20508;-61
2024/04/14 11:36:33;;;;;;;1.60;1.50;;;25.70;42.60;;;;;;5345057;26;20458;-62
2024/04/14 11:39:03;;;;;;;1.93;1.70;;;25.70;43.00;;;;;;5344913;26;20519;-62
2024/04/14 11:41:29;;;;;;;1.40;1.30;;;25.80;42.50;;;;;;5344541;26;20846;-62
2024/04/14 11:43:56;;;;;;;2.17;1.53;;;25.60;41.90;;;;;;5363315;26;20527;-63
2024/04/14 11:46:21;;;;;;;1.43;1.10;;;25.70;42.00;;;;;;5379750;26;20442;-63
2024/04/14 11:48:47;;;;;;;2.20;2.00;;;25.60;41.00;;;;;;5348993;26;20545;-62
2024/04/14 11:51:12;;;;;;;1.83;1.50;;;25.40;42.20;;;;;;5379324;26;20710;-62
2024/04/14 11:53:38;;;;;;;2.27;1.60;;;25.40;41.10;;;;;;5379669;26;20228;-62
2024/04/14 11:56:04;;;;;;;1.70;1.20;;;25.30;41.00;;;;;;5379531;26;20310;-63
2024/04/14 11:58:30;;;;;;;2.67;1.77;;;25.20;39.60;;;;;;5348820;26;20591;-63
2024/04/14 12:00:56;;;;;;;2.67;2.00;;;25.30;39.70;;;;;;5379406;26;20499;-63
2024/04/14 12:03:22;;;;;;;1.77;1.67;;;25.40;39.70;;;;;;5379609;26;20498;-63
2024/04/14 12:05:48;;;;;;;2.30;2.10;;;25.40;39.20;;;;;;5379328;26;20442;-62
2024/04/14 12:08:14;;;;;;;1.63;1.53;;;25.50;39.60;;;;;;5379270;26;20225;-62
2024/04/14 12:10:40;;;;;;;1.90;1.80;;;25.50;41.50;;;;;;5347746;26;20775;-62
2024/04/14 12:13:07;;;;;;;2.40;1.70;;;25.30;40.20;;;;;;5348266;26;20279;-62
2024/04/14 12:15:33;;;;;;;2.33;1.97;;;25.30;40.90;;;;;;5379420;26;20506;-62
2024/04/14 12:17:59;;;;;;;6.37;1.70;;;25.40;41.40;;;;;;5348213;26;20423;-63
2024/04/14 12:20:26;;;;;;;2.63;2.37;;;25.20;40.40;;;;;;5378796;26;20435;-63
2024/04/14 12:22:52;;;;;;;2.03;1.90;;;25.20;40.20;;;;;;5380810;26;20740;-63
2024/04/14 12:25:19;;;;;;;1.90;1.80;;;25.20;39.80;;;;;;5351354;26;20422;-63
2024/04/14 12:27:45;;;;;;;2.00;1.83;;;24.90;40.00;;;;;;5382482;26;20435;-63
2024/04/14 12:30:10;;;;;;;2.20;1.83;;;25.00;40.60;;;;;;5381962;26;21019;-63
2024/04/14 12:32:36;;;;;;;4.60;2.00;;;25.10;40.30;;;;;;5382481;26;20276;-63
2024/04/14 12:35:02;;;;;;;3.73;2.10;;;24.90;40.00;;;;;;5382395;26;20262;-63
2024/04/14 12:37:27;;;;;;;5.50;1.53;;;25.20;38.20;;;;;;5382194;26;20224;-63
2024/04/14 12:39:53;;;;;;;2.03;1.90;;;25.20;37.30;;;;;;5381856;26;20229;-63
2024/04/14 12:42:19;;;;;;;1.80;1.70;;;25.20;37.30;;;;;;5351580;26;20220;-63